sensor_id;sensor_type;location;lat;lon;timestamp;temperature;humidity
12264;DHT22;6194;49.010;8.414;2023-09-07T00:01:58;17.20;99.90
12264;DHT22;6194;49.010;8.414;2023-09-07T00:04:23;17.20;99.90
12264;DHT22;6194;49.010;8.414;2023-09-07T00:06:49;17.40;99.90
12264;DHT22;6194;49.010;8.414;2023-09-07T00:09:16;17.20;99.90
12264;DHT22;6194;49.010;8.414;2023-09-07T00:11:44;17.20;99.90
12264;DHT22;6194;49.010;8.414;2023-09-07T00:14:09;17.10;99.90
12264;DHT22;6194;49.010;8.414;2023-09-07T00:16:35;17.10;99.90
12264;DHT22;6194;49.010;8.414;2023-09-07T00:19:01;17.10;99.90
12264;DHT22;6194;49.010;8.414;2023-09-07T00:21:28;17.10;99.90
12264;DHT22;6194;49.010;8.414;2023-09-07T00:23:54;17.00;99.90
12264;DHT22;6194;49.010;8.414;2023-09-07T00:26:20;16.90;99.90
12264;DHT22;6194;49.010;8.414;2023-09-07T00:28:46;16.90;99.90
12264;DHT22;6194;49.010;8.414;2023-09-07T00:31:11;16.80;99.90
12264;DHT22;6194;49.010;8.414;2023-09-07T00:33:37;16.80;99.90
12264;DHT22;6194;49.010;8.414;2023-09-07T00:36:03;16.90;99.90
12264;DHT22;6194;49.010;8.414;2023-09-07T00:38:29;16.90;99.90
12264;DHT22;6194;49.010;8.414;2023-09-07T00:40:54;16.90;99.90
12264;DHT22;6194;49.010;8.414;2023-09-07T00:43:20;16.90;99.90
12264;DHT22;6194;49.010;8.414;2023-09-07T00:45:46;16.90;99.90
12264;DHT22;6194;49.010;8.414;2023-09-07T00:48:15;16.90;99.90
12264;DHT22;6194;49.010;8.414;2023-09-07T00:50:44;16.80;99.90
12264;DHT22;6194;49.010;8.414;2023-09-07T00:53:10;16.80;99.90
12264;DHT22;6194;49.010;8.414;2023-09-07T00:55:37;16.80;99.90
12264;DHT22;6194;49.010;8.414;2023-09-07T00:58:04;16.80;99.90
12264;DHT22;6194;49.010;8.414;2023-09-07T01:00:30;16.70;99.90
12264;DHT22;6194;49.010;8.414;2023-09-07T01:02:56;16.70;99.90
12264;DHT22;6194;49.010;8.414;2023-09-07T01:05:27;16.70;99.90
12264;DHT22;6194;49.010;8.414;2023-09-07T01:08:00;16.70;99.90
12264;DHT22;6194;49.010;8.414;2023-09-07T01:10:29;16.90;99.90
12264;DHT22;6194;49.010;8.414;2023-09-07T01:12:54;16.70;99.90
12264;DHT22;6194;49.010;8.414;2023-09-07T01:15:20;16.60;99.90
12264;DHT22;6194;49.010;8.414;2023-09-07T01:17:46;16.60;99.90
12264;DHT22;6194;49.010;8.414;2023-09-07T01:20:13;16.60;99.90
12264;DHT22;6194;49.010;8.414;2023-09-07T01:22:42;16.60;99.90
12264;DHT22;6194;49.010;8.414;2023-09-07T01:25:08;16.50;99.90
12264;DHT22;6194;49.010;8.414;2023-09-07T01:27:35;16.50;99.90
12264;DHT22;6194;49.010;8.414;2023-09-07T01:30:01;16.50;99.90
12264;DHT22;6194;49.010;8.414;2023-09-07T01:32:28;16.50;99.90
12264;DHT22;6194;49.010;8.414;2023-09-07T01:34:57;16.50;99.90
12264;DHT22;6194;49.010;8.414;2023-09-07T01:37:23;16.40;99.90
12264;DHT22;6194;49.010;8.414;2023-09-07T01:39:49;16.40;99.90
12264;DHT22;6194;49.010;8.414;2023-09-07T01:42:15;16.40;99.90
12264;DHT22;6194;49.010;8.414;2023-09-07T01:44:41;16.40;99.90
12264;DHT22;6194;49.010;8.414;2023-09-07T01:47:06;16.40;99.90
12264;DHT22;6194;49.010;8.414;2023-09-07T01:49:32;16.40;99.90
12264;DHT22;6194;49.010;8.414;2023-09-07T01:51:58;16.30;99.90
12264;DHT22;6194;49.010;8.414;2023-09-07T01:54:23;16.30;99.90
12264;DHT22;6194;49.010;8.414;2023-09-07T01:56:49;16.30;99.90
12264;DHT22;6194;49.010;8.414;2023-09-07T01:59:14;16.20;99.90
12264;DHT22;6194;49.010;8.414;2023-09-07T02:01:40;16.20;99.90
12264;DHT22;6194;49.010;8.414;2023-09-07T02:04:06;16.10;99.90
12264;DHT22;6194;49.010;8.414;2023-09-07T02:06:31;16.10;99.90
12264;DHT22;6194;49.010;8.414;2023-09-07T02:08:57;16.10;99.90
12264;DHT22;6194;49.010;8.414;2023-09-07T02:11:23;16.00;99.90
12264;DHT22;6194;49.010;8.414;2023-09-07T02:13:49;16.00;99.90
12264;DHT22;6194;49.010;8.414;2023-09-07T02:16:14;16.00;99.90
12264;DHT22;6194;49.010;8.414;2023-09-07T02:18:40;16.00;99.90
12264;DHT22;6194;49.010;8.414;2023-09-07T02:21:09;16.50;99.90
12264;DHT22;6194;49.010;8.414;2023-09-07T02:23:35;16.00;99.90
12264;DHT22;6194;49.010;8.414;2023-09-07T02:26:02;16.00;99.90
12264;DHT22;6194;49.010;8.414;2023-09-07T02:28:27;15.90;99.90
12264;DHT22;6194;49.010;8.414;2023-09-07T02:30:53;15.90;99.90
12264;DHT22;6194;49.010;8.414;2023-09-07T02:33:19;15.90;99.90
12264;DHT22;6194;49.010;8.414;2023-09-07T02:35:45;15.80;99.90
12264;DHT22;6194;49.010;8.414;2023-09-07T02:38:10;15.90;99.90
12264;DHT22;6194;49.010;8.414;2023-09-07T02:40:43;15.80;99.90
12264;DHT22;6194;49.010;8.414;2023-09-07T02:43:09;15.80;99.90
12264;DHT22;6194;49.010;8.414;2023-09-07T02:45:35;15.90;99.90
12264;DHT22;6194;49.010;8.414;2023-09-07T02:48:01;15.70;99.90
12264;DHT22;6194;49.010;8.414;2023-09-07T02:50:31;15.70;99.90
12264;DHT22;6194;49.010;8.414;2023-09-07T02:52:56;15.60;99.90
12264;DHT22;6194;49.010;8.414;2023-09-07T02:55:23;15.60;99.90
12264;DHT22;6194;49.010;8.414;2023-09-07T02:57:48;15.60;99.90
12264;DHT22;6194;49.010;8.414;2023-09-07T03:00:14;15.60;99.90
12264;DHT22;6194;49.010;8.414;2023-09-07T03:02:43;15.60;99.90
12264;DHT22;6194;49.010;8.414;2023-09-07T03:05:09;15.60;99.90
12264;DHT22;6194;49.010;8.414;2023-09-07T03:07:34;15.60;99.90
12264;DHT22;6194;49.010;8.414;2023-09-07T03:10:00;15.70;99.90
12264;DHT22;6194;49.010;8.414;2023-09-07T03:12:26;15.70;99.90
12264;DHT22;6194;49.010;8.414;2023-09-07T03:14:52;15.80;99.90
12264;DHT22;6194;49.010;8.414;2023-09-07T03:17:18;15.80;99.90
12264;DHT22;6194;49.010;8.414;2023-09-07T03:19:48;15.80;99.90
12264;DHT22;6194;49.010;8.414;2023-09-07T03:22:14;15.80;99.90
12264;DHT22;6194;49.010;8.414;2023-09-07T03:24:40;15.90;99.90
12264;DHT22;6194;49.010;8.414;2023-09-07T03:27:05;15.90;99.90
12264;DHT22;6194;49.010;8.414;2023-09-07T03:29:32;15.90;99.90
12264;DHT22;6194;49.010;8.414;2023-09-07T03:31:59;15.90;99.90
12264;DHT22;6194;49.010;8.414;2023-09-07T03:34:25;15.90;99.90
12264;DHT22;6194;49.010;8.414;2023-09-07T03:36:51;15.80;99.90
12264;DHT22;6194;49.010;8.414;2023-09-07T03:39:17;15.80;99.90
12264;DHT22;6194;49.010;8.414;2023-09-07T03:41:44;15.90;99.90
12264;DHT22;6194;49.010;8.414;2023-09-07T03:44:10;15.90;99.90
12264;DHT22;6194;49.010;8.414;2023-09-07T03:46:35;15.80;99.90
12264;DHT22;6194;49.010;8.414;2023-09-07T03:49:01;15.80;99.90
12264;DHT22;6194;49.010;8.414;2023-09-07T03:51:27;15.80;99.90
12264;DHT22;6194;49.010;8.414;2023-09-07T03:53:52;16.00;99.90
12264;DHT22;6194;49.010;8.414;2023-09-07T03:56:18;15.60;99.90
12264;DHT22;6194;49.010;8.414;2023-09-07T03:58:43;15.60;99.90
12264;DHT22;6194;49.010;8.414;2023-09-07T04:01:09;15.60;99.90
12264;DHT22;6194;49.010;8.414;2023-09-07T04:03:35;15.50;99.90
12264;DHT22;6194;49.010;8.414;2023-09-07T04:06:00;15.50;99.90
12264;DHT22;6194;49.010;8.414;2023-09-07T04:08:26;15.40;99.90
12264;DHT22;6194;49.010;8.414;2023-09-07T04:10:52;15.40;99.90
12264;DHT22;6194;49.010;8.414;2023-09-07T04:13:17;15.70;99.90
12264;DHT22;6194;49.010;8.414;2023-09-07T04:15:46;15.40;99.90
12264;DHT22;6194;49.010;8.414;2023-09-07T04:18:12;15.40;99.90
12264;DHT22;6194;49.010;8.414;2023-09-07T04:20:40;15.40;99.90
12264;DHT22;6194;49.010;8.414;2023-09-07T04:23:06;15.30;99.90
12264;DHT22;6194;49.010;8.414;2023-09-07T04:25:31;15.30;99.90
12264;DHT22;6194;49.010;8.414;2023-09-07T04:27:58;15.30;99.90
12264;DHT22;6194;49.010;8.414;2023-09-07T04:30:23;15.30;99.90
12264;DHT22;6194;49.010;8.414;2023-09-07T04:32:49;15.30;99.90
12264;DHT22;6194;49.010;8.414;2023-09-07T04:35:15;15.20;99.90
12264;DHT22;6194;49.010;8.414;2023-09-07T04:37:44;15.20;99.90
12264;DHT22;6194;49.010;8.414;2023-09-07T04:40:10;15.30;99.90
12264;DHT22;6194;49.010;8.414;2023-09-07T04:42:36;15.10;99.90
12264;DHT22;6194;49.010;8.414;2023-09-07T04:45:04;15.10;99.90
12264;DHT22;6194;49.010;8.414;2023-09-07T04:47:30;15.10;99.90
12264;DHT22;6194;49.010;8.414;2023-09-07T04:49:56;15.10;99.90
12264;DHT22;6194;49.010;8.414;2023-09-07T04:52:21;15.10;99.90
12264;DHT22;6194;49.010;8.414;2023-09-07T04:54:50;15.00;99.90
12264;DHT22;6194;49.010;8.414;2023-09-07T04:57:18;15.00;99.90
12264;DHT22;6194;49.010;8.414;2023-09-07T04:59:44;15.00;99.90
12264;DHT22;6194;49.010;8.414;2023-09-07T05:02:10;15.00;99.90
12264;DHT22;6194;49.010;8.414;2023-09-07T05:04:37;15.10;99.90
12264;DHT22;6194;49.010;8.414;2023-09-07T05:07:03;15.30;99.90
12264;DHT22;6194;49.010;8.414;2023-09-07T05:09:28;15.50;99.90
12264;DHT22;6194;49.010;8.414;2023-09-07T05:11:55;15.50;99.90
12264;DHT22;6194;49.010;8.414;2023-09-07T05:14:21;15.70;99.90
12264;DHT22;6194;49.010;8.414;2023-09-07T05:16:47;15.80;99.90
12264;DHT22;6194;49.010;8.414;2023-09-07T05:19:13;15.90;99.90
12264;DHT22;6194;49.010;8.414;2023-09-07T05:21:39;15.90;99.90
12264;DHT22;6194;49.010;8.414;2023-09-07T05:24:05;16.20;99.90
12264;DHT22;6194;49.010;8.414;2023-09-07T05:26:31;16.20;99.90
12264;DHT22;6194;49.010;8.414;2023-09-07T05:28:56;16.30;99.90
12264;DHT22;6194;49.010;8.414;2023-09-07T05:31:22;16.40;99.90
12264;DHT22;6194;49.010;8.414;2023-09-07T05:33:47;16.70;99.90
12264;DHT22;6194;49.010;8.414;2023-09-07T05:36:13;16.80;99.90
12264;DHT22;6194;49.010;8.414;2023-09-07T05:38:38;16.80;99.90
12264;DHT22;6194;49.010;8.414;2023-09-07T05:41:04;16.80;99.90
12264;DHT22;6194;49.010;8.414;2023-09-07T05:43:30;16.90;99.90
12264;DHT22;6194;49.010;8.414;2023-09-07T05:45:55;17.00;99.90
12264;DHT22;6194;49.010;8.414;2023-09-07T05:48:21;17.10;99.90
12264;DHT22;6194;49.010;8.414;2023-09-07T05:50:46;17.20;99.90
12264;DHT22;6194;49.010;8.414;2023-09-07T05:53:12;17.40;99.90
12264;DHT22;6194;49.010;8.414;2023-09-07T05:55:38;17.30;99.90
12264;DHT22;6194;49.010;8.414;2023-09-07T05:58:08;17.40;99.90
12264;DHT22;6194;49.010;8.414;2023-09-07T06:00:35;17.20;99.90
12264;DHT22;6194;49.010;8.414;2023-09-07T06:03:01;17.00;99.90
12264;DHT22;6194;49.010;8.414;2023-09-07T06:05:27;17.00;99.90
12264;DHT22;6194;49.010;8.414;2023-09-07T06:07:53;17.00;99.90
12264;DHT22;6194;49.010;8.414;2023-09-07T06:10:18;17.40;99.90
12264;DHT22;6194;49.010;8.414;2023-09-07T06:12:45;17.70;99.90
12264;DHT22;6194;49.010;8.414;2023-09-07T06:15:10;18.10;99.90
12264;DHT22;6194;49.010;8.414;2023-09-07T06:17:36;18.30;99.90
12264;DHT22;6194;49.010;8.414;2023-09-07T06:20:02;18.50;99.90
12264;DHT22;6194;49.010;8.414;2023-09-07T06:22:28;18.50;99.90
12264;DHT22;6194;49.010;8.414;2023-09-07T06:24:54;18.60;99.90
12264;DHT22;6194;49.010;8.414;2023-09-07T06:27:19;18.50;99.90
12264;DHT22;6194;49.010;8.414;2023-09-07T06:29:45;18.20;99.90
12264;DHT22;6194;49.010;8.414;2023-09-07T06:32:11;18.40;99.90
12264;DHT22;6194;49.010;8.414;2023-09-07T06:34:37;18.00;99.90
12264;DHT22;6194;49.010;8.414;2023-09-07T06:37:05;18.00;99.90
12264;DHT22;6194;49.010;8.414;2023-09-07T06:39:30;18.00;99.90
12264;DHT22;6194;49.010;8.414;2023-09-07T06:41:56;18.10;99.90
12264;DHT22;6194;49.010;8.414;2023-09-07T06:44:21;18.20;99.90
12264;DHT22;6194;49.010;8.414;2023-09-07T06:46:47;18.30;99.90
12264;DHT22;6194;49.010;8.414;2023-09-07T06:49:13;18.50;99.90
12264;DHT22;6194;49.010;8.414;2023-09-07T06:51:38;18.50;99.90
12264;DHT22;6194;49.010;8.414;2023-09-07T06:54:04;18.70;99.90
12264;DHT22;6194;49.010;8.414;2023-09-07T06:56:30;18.80;99.90
12264;DHT22;6194;49.010;8.414;2023-09-07T06:58:57;18.80;99.90
12264;DHT22;6194;49.010;8.414;2023-09-07T07:01:23;18.90;99.90
12264;DHT22;6194;49.010;8.414;2023-09-07T07:03:49;18.90;99.90
12264;DHT22;6194;49.010;8.414;2023-09-07T07:06:14;19.00;99.90
12264;DHT22;6194;49.010;8.414;2023-09-07T07:08:40;19.10;99.90
12264;DHT22;6194;49.010;8.414;2023-09-07T07:11:08;19.10;99.90
12264;DHT22;6194;49.010;8.414;2023-09-07T07:13:35;19.20;99.90
12264;DHT22;6194;49.010;8.414;2023-09-07T07:16:02;19.40;99.90
12264;DHT22;6194;49.010;8.414;2023-09-07T07:18:31;19.70;99.90
12264;DHT22;6194;49.010;8.414;2023-09-07T07:20:57;19.50;99.90
12264;DHT22;6194;49.010;8.414;2023-09-07T07:23:23;19.50;99.90
12264;DHT22;6194;49.010;8.414;2023-09-07T07:25:48;19.60;99.90
12264;DHT22;6194;49.010;8.414;2023-09-07T07:28:14;19.60;99.90
12264;DHT22;6194;49.010;8.414;2023-09-07T07:30:40;19.70;99.90
12264;DHT22;6194;49.010;8.414;2023-09-07T07:33:06;19.90;99.90
12264;DHT22;6194;49.010;8.414;2023-09-07T07:35:33;20.00;99.90
12264;DHT22;6194;49.010;8.414;2023-09-07T07:38:00;20.10;99.90
12264;DHT22;6194;49.010;8.414;2023-09-07T07:40:26;20.30;99.90
12264;DHT22;6194;49.010;8.414;2023-09-07T07:42:52;20.40;99.90
12264;DHT22;6194;49.010;8.414;2023-09-07T07:45:19;20.60;99.90
12264;DHT22;6194;49.010;8.414;2023-09-07T07:47:50;20.70;99.90
12264;DHT22;6194;49.010;8.414;2023-09-07T07:50:16;20.70;99.90
12264;DHT22;6194;49.010;8.414;2023-09-07T07:52:42;20.90;99.90
12264;DHT22;6194;49.010;8.414;2023-09-07T07:55:09;21.00;99.90
12264;DHT22;6194;49.010;8.414;2023-09-07T07:57:34;21.10;99.90
12264;DHT22;6194;49.010;8.414;2023-09-07T08:00:00;21.20;99.90
12264;DHT22;6194;49.010;8.414;2023-09-07T08:02:26;21.20;99.90
12264;DHT22;6194;49.010;8.414;2023-09-07T08:04:51;21.30;99.90
12264;DHT22;6194;49.010;8.414;2023-09-07T08:07:17;21.30;99.90
12264;DHT22;6194;49.010;8.414;2023-09-07T08:09:43;21.40;99.90
12264;DHT22;6194;49.010;8.414;2023-09-07T08:12:08;21.50;99.90
12264;DHT22;6194;49.010;8.414;2023-09-07T08:14:35;21.60;99.90
12264;DHT22;6194;49.010;8.414;2023-09-07T08:17:00;21.70;99.90
12264;DHT22;6194;49.010;8.414;2023-09-07T08:19:27;21.70;99.90
12264;DHT22;6194;49.010;8.414;2023-09-07T08:21:53;21.90;99.90
12264;DHT22;6194;49.010;8.414;2023-09-07T08:24:19;22.00;99.90
12264;DHT22;6194;49.010;8.414;2023-09-07T08:26:44;22.00;99.90
12264;DHT22;6194;49.010;8.414;2023-09-07T08:29:10;22.00;99.90
12264;DHT22;6194;49.010;8.414;2023-09-07T08:31:36;22.10;99.90
12264;DHT22;6194;49.010;8.414;2023-09-07T08:34:05;22.00;99.90
12264;DHT22;6194;49.010;8.414;2023-09-07T08:36:32;22.10;99.90
12264;DHT22;6194;49.010;8.414;2023-09-07T08:39:00;22.10;99.90
12264;DHT22;6194;49.010;8.414;2023-09-07T08:41:40;22.30;99.90
12264;DHT22;6194;49.010;8.414;2023-09-07T08:44:10;22.50;99.90
12264;DHT22;6194;49.010;8.414;2023-09-07T08:46:37;22.70;99.90
12264;DHT22;6194;49.010;8.414;2023-09-07T08:49:04;22.60;99.90
12264;DHT22;6194;49.010;8.414;2023-09-07T08:51:30;22.60;99.90
12264;DHT22;6194;49.010;8.414;2023-09-07T08:53:57;22.70;99.90
12264;DHT22;6194;49.010;8.414;2023-09-07T08:56:24;22.80;99.90
12264;DHT22;6194;49.010;8.414;2023-09-07T08:58:50;22.80;99.90
12264;DHT22;6194;49.010;8.414;2023-09-07T09:01:16;22.80;99.90
12264;DHT22;6194;49.010;8.414;2023-09-07T09:03:42;23.10;99.90
12264;DHT22;6194;49.010;8.414;2023-09-07T09:06:09;23.10;99.90
12264;DHT22;6194;49.010;8.414;2023-09-07T09:08:49;23.10;99.90
12264;DHT22;6194;49.010;8.414;2023-09-07T09:11:15;23.20;99.90
12264;DHT22;6194;49.010;8.414;2023-09-07T09:13:42;23.30;99.90
12264;DHT22;6194;49.010;8.414;2023-09-07T09:16:11;23.50;99.90
12264;DHT22;6194;49.010;8.414;2023-09-07T09:18:38;23.50;99.90
12264;DHT22;6194;49.010;8.414;2023-09-07T09:21:05;23.60;99.90
12264;DHT22;6194;49.010;8.414;2023-09-07T09:23:36;23.70;99.90
12264;DHT22;6194;49.010;8.414;2023-09-07T09:26:03;23.70;99.90
12264;DHT22;6194;49.010;8.414;2023-09-07T09:28:34;23.70;99.90
12264;DHT22;6194;49.010;8.414;2023-09-07T09:31:00;23.70;99.90
12264;DHT22;6194;49.010;8.414;2023-09-07T09:33:26;23.80;99.90
12264;DHT22;6194;49.010;8.414;2023-09-07T09:35:53;23.90;99.90
12264;DHT22;6194;49.010;8.414;2023-09-07T09:38:19;23.90;99.90
12264;DHT22;6194;49.010;8.414;2023-09-07T09:40:45;23.90;99.90
12264;DHT22;6194;49.010;8.414;2023-09-07T09:43:12;24.20;99.90
12264;DHT22;6194;49.010;8.414;2023-09-07T09:45:38;24.10;99.90
12264;DHT22;6194;49.010;8.414;2023-09-07T09:48:05;24.00;99.90
12264;DHT22;6194;49.010;8.414;2023-09-07T09:50:31;24.10;99.90
12264;DHT22;6194;49.010;8.414;2023-09-07T09:53:00;24.30;99.90
12264;DHT22;6194;49.010;8.414;2023-09-07T09:55:30;24.40;99.90
12264;DHT22;6194;49.010;8.414;2023-09-07T09:57:56;24.50;99.90
12264;DHT22;6194;49.010;8.414;2023-09-07T10:00:23;24.50;99.90
12264;DHT22;6194;49.010;8.414;2023-09-07T10:05:21;24.90;99.90
12264;DHT22;6194;49.010;8.414;2023-09-07T10:07:49;25.00;99.90
12264;DHT22;6194;49.010;8.414;2023-09-07T10:10:17;25.10;99.90
12264;DHT22;6194;49.010;8.414;2023-09-07T10:12:53;24.90;99.90
12264;DHT22;6194;49.010;8.414;2023-09-07T10:15:26;24.90;99.90
12264;DHT22;6194;49.010;8.414;2023-09-07T10:18:14;25.00;99.90
12264;DHT22;6194;49.010;8.414;2023-09-07T10:21:10;25.10;99.90
12264;DHT22;6194;49.010;8.414;2023-09-07T10:26:03;25.50;99.90
12264;DHT22;6194;49.010;8.414;2023-09-07T10:28:30;25.30;99.90
12264;DHT22;6194;49.010;8.414;2023-09-07T10:31:06;25.30;99.90
12264;DHT22;6194;49.010;8.414;2023-09-07T10:33:33;25.20;99.90
12264;DHT22;6194;49.010;8.414;2023-09-07T10:35:59;25.30;99.90
12264;DHT22;6194;49.010;8.414;2023-09-07T10:38:25;25.60;99.90
12264;DHT22;6194;49.010;8.414;2023-09-07T10:40:55;25.60;99.90
12264;DHT22;6194;49.010;8.414;2023-09-07T10:43:31;25.70;99.90
12264;DHT22;6194;49.010;8.414;2023-09-07T10:45:58;25.80;99.90
12264;DHT22;6194;49.010;8.414;2023-09-07T10:48:28;25.90;99.90
12264;DHT22;6194;49.010;8.414;2023-09-07T10:50:54;26.00;99.90
12264;DHT22;6194;49.010;8.414;2023-09-07T10:53:31;26.10;99.90
12264;DHT22;6194;49.010;8.414;2023-09-07T10:55:59;26.00;99.90
12264;DHT22;6194;49.010;8.414;2023-09-07T10:58:26;26.00;99.90
12264;DHT22;6194;49.010;8.414;2023-09-07T11:00:53;26.10;99.90
12264;DHT22;6194;49.010;8.414;2023-09-07T11:03:19;26.20;99.90
12264;DHT22;6194;49.010;8.414;2023-09-07T11:05:45;26.40;99.90
12264;DHT22;6194;49.010;8.414;2023-09-07T11:08:10;26.40;99.90
12264;DHT22;6194;49.010;8.414;2023-09-07T11:10:36;26.50;99.90
12264;DHT22;6194;49.010;8.414;2023-09-07T11:13:06;26.60;99.90
12264;DHT22;6194;49.010;8.414;2023-09-07T11:15:32;26.60;99.90
12264;DHT22;6194;49.010;8.414;2023-09-07T11:18:05;26.70;99.90
12264;DHT22;6194;49.010;8.414;2023-09-07T11:20:33;26.80;99.90
12264;DHT22;6194;49.010;8.414;2023-09-07T11:22:59;26.70;99.90
12264;DHT22;6194;49.010;8.414;2023-09-07T11:25:25;26.80;99.90
12264;DHT22;6194;49.010;8.414;2023-09-07T11:27:52;26.80;99.90
12264;DHT22;6194;49.010;8.414;2023-09-07T11:30:20;26.80;99.90
12264;DHT22;6194;49.010;8.414;2023-09-07T11:32:46;26.80;99.90
12264;DHT22;6194;49.010;8.414;2023-09-07T11:35:12;26.80;99.90
12264;DHT22;6194;49.010;8.414;2023-09-07T11:37:37;26.80;99.90
12264;DHT22;6194;49.010;8.414;2023-09-07T11:40:03;26.70;99.90
12264;DHT22;6194;49.010;8.414;2023-09-07T11:42:36;26.80;99.90
12264;DHT22;6194;49.010;8.414;2023-09-07T11:45:02;27.00;99.90
12264;DHT22;6194;49.010;8.414;2023-09-07T11:47:28;27.10;99.90
12264;DHT22;6194;49.010;8.414;2023-09-07T11:49:53;27.10;99.90
12264;DHT22;6194;49.010;8.414;2023-09-07T11:52:19;27.10;99.90
12264;DHT22;6194;49.010;8.414;2023-09-07T11:54:45;27.10;99.90
12264;DHT22;6194;49.010;8.414;2023-09-07T11:57:10;27.20;99.90
12264;DHT22;6194;49.010;8.414;2023-09-07T11:59:36;27.20;99.90
12264;DHT22;6194;49.010;8.414;2023-09-07T12:02:02;27.20;99.90
12264;DHT22;6194;49.010;8.414;2023-09-07T12:04:27;27.20;99.90
12264;DHT22;6194;49.010;8.414;2023-09-07T12:06:53;27.30;99.90
12264;DHT22;6194;49.010;8.414;2023-09-07T12:09:18;27.30;99.90
12264;DHT22;6194;49.010;8.414;2023-09-07T12:11:44;27.30;99.90
12264;DHT22;6194;49.010;8.414;2023-09-07T12:14:09;27.40;99.90
12264;DHT22;6194;49.010;8.414;2023-09-07T12:16:35;27.40;99.90
12264;DHT22;6194;49.010;8.414;2023-09-07T12:19:00;27.60;99.90
12264;DHT22;6194;49.010;8.414;2023-09-07T12:21:26;27.70;99.90
12264;DHT22;6194;49.010;8.414;2023-09-07T12:23:52;27.80;99.90
12264;DHT22;6194;49.010;8.414;2023-09-07T12:26:17;27.90;99.90
12264;DHT22;6194;49.010;8.414;2023-09-07T12:28:46;27.90;99.90
12264;DHT22;6194;49.010;8.414;2023-09-07T12:31:11;28.00;99.90
12264;DHT22;6194;49.010;8.414;2023-09-07T12:33:37;28.00;99.90
12264;DHT22;6194;49.010;8.414;2023-09-07T12:36:03;28.00;99.90
12264;DHT22;6194;49.010;8.414;2023-09-07T12:38:30;28.00;99.90
12264;DHT22;6194;49.010;8.414;2023-09-07T12:40:56;27.90;99.90
12264;DHT22;6194;49.010;8.414;2023-09-07T12:43:21;28.10;99.90
12264;DHT22;6194;49.010;8.414;2023-09-07T12:45:47;28.10;99.90
12264;DHT22;6194;49.010;8.414;2023-09-07T12:48:12;28.30;99.90
12264;DHT22;6194;49.010;8.414;2023-09-07T12:50:38;28.50;99.90
12264;DHT22;6194;49.010;8.414;2023-09-07T12:53:08;28.60;99.90
12264;DHT22;6194;49.010;8.414;2023-09-07T12:55:34;28.70;99.90
12264;DHT22;6194;49.010;8.414;2023-09-07T12:57:59;28.60;99.90
12264;DHT22;6194;49.010;8.414;2023-09-07T13:00:26;28.60;99.90
12264;DHT22;6194;49.010;8.414;2023-09-07T13:02:52;28.60;99.90
12264;DHT22;6194;49.010;8.414;2023-09-07T13:05:18;28.50;99.90
12264;DHT22;6194;49.010;8.414;2023-09-07T13:07:44;28.50;99.90
12264;DHT22;6194;49.010;8.414;2023-09-07T13:10:10;28.60;99.90
12264;DHT22;6194;49.010;8.414;2023-09-07T13:12:36;28.80;99.90
12264;DHT22;6194;49.010;8.414;2023-09-07T13:15:03;28.90;99.90
12264;DHT22;6194;49.010;8.414;2023-09-07T13:17:28;28.80;99.90
12264;DHT22;6194;49.010;8.414;2023-09-07T13:19:54;28.80;99.90
12264;DHT22;6194;49.010;8.414;2023-09-07T13:22:20;28.80;99.90
12264;DHT22;6194;49.010;8.414;2023-09-07T13:24:45;28.90;99.90
12264;DHT22;6194;49.010;8.414;2023-09-07T13:27:11;28.90;99.90
12264;DHT22;6194;49.010;8.414;2023-09-07T13:29:36;29.00;99.90
12264;DHT22;6194;49.010;8.414;2023-09-07T13:32:03;29.10;99.90
12264;DHT22;6194;49.010;8.414;2023-09-07T13:34:28;28.80;99.90
12264;DHT22;6194;49.010;8.414;2023-09-07T13:36:55;28.80;99.90
12264;DHT22;6194;49.010;8.414;2023-09-07T13:39:21;28.80;99.90
12264;DHT22;6194;49.010;8.414;2023-09-07T13:41:47;28.80;99.90
12264;DHT22;6194;49.010;8.414;2023-09-07T13:44:14;28.90;99.90
12264;DHT22;6194;49.010;8.414;2023-09-07T13:46:40;28.80;99.90
12264;DHT22;6194;49.010;8.414;2023-09-07T13:49:06;28.80;99.90
12264;DHT22;6194;49.010;8.414;2023-09-07T13:51:31;28.80;99.90
12264;DHT22;6194;49.010;8.414;2023-09-07T13:54:04;28.90;99.90
12264;DHT22;6194;49.010;8.414;2023-09-07T13:56:29;28.90;99.90
12264;DHT22;6194;49.010;8.414;2023-09-07T13:58:55;28.80;99.90
12264;DHT22;6194;49.010;8.414;2023-09-07T14:01:20;28.80;99.90
12264;DHT22;6194;49.010;8.414;2023-09-07T14:03:46;28.80;99.90
12264;DHT22;6194;49.010;8.414;2023-09-07T14:06:12;28.90;99.90
12264;DHT22;6194;49.010;8.414;2023-09-07T14:08:37;29.00;99.90
12264;DHT22;6194;49.010;8.414;2023-09-07T14:11:03;29.00;99.90
12264;DHT22;6194;49.010;8.414;2023-09-07T14:13:29;28.90;99.90
12264;DHT22;6194;49.010;8.414;2023-09-07T14:15:54;29.00;99.90
12264;DHT22;6194;49.010;8.414;2023-09-07T14:18:20;29.10;99.90
12264;DHT22;6194;49.010;8.414;2023-09-07T14:20:45;29.20;99.90
12264;DHT22;6194;49.010;8.414;2023-09-07T14:23:11;29.10;99.90
12264;DHT22;6194;49.010;8.414;2023-09-07T14:25:37;29.10;99.90
12264;DHT22;6194;49.010;8.414;2023-09-07T14:28:07;29.20;99.90
12264;DHT22;6194;49.010;8.414;2023-09-07T14:30:33;29.20;99.90
12264;DHT22;6194;49.010;8.414;2023-09-07T14:32:58;29.20;99.90
12264;DHT22;6194;49.010;8.414;2023-09-07T14:35:24;29.40;99.90
12264;DHT22;6194;49.010;8.414;2023-09-07T14:37:50;29.40;99.90
12264;DHT22;6194;49.010;8.414;2023-09-07T14:40:18;29.60;99.90
12264;DHT22;6194;49.010;8.414;2023-09-07T14:42:44;29.70;99.90
12264;DHT22;6194;49.010;8.414;2023-09-07T14:45:10;29.70;99.90
12264;DHT22;6194;49.010;8.414;2023-09-07T14:47:35;29.80;99.90
12264;DHT22;6194;49.010;8.414;2023-09-07T14:50:01;29.80;99.90
12264;DHT22;6194;49.010;8.414;2023-09-07T14:52:27;29.80;99.90
12264;DHT22;6194;49.010;8.414;2023-09-07T14:54:53;29.80;99.90
12264;DHT22;6194;49.010;8.414;2023-09-07T14:57:18;29.70;99.90
12264;DHT22;6194;49.010;8.414;2023-09-07T14:59:44;29.70;99.90
12264;DHT22;6194;49.010;8.414;2023-09-07T15:02:10;29.70;99.90
12264;DHT22;6194;49.010;8.414;2023-09-07T15:04:35;29.70;99.90
12264;DHT22;6194;49.010;8.414;2023-09-07T15:07:01;29.60;99.90
12264;DHT22;6194;49.010;8.414;2023-09-07T15:09:27;29.60;99.90
12264;DHT22;6194;49.010;8.414;2023-09-07T15:11:53;29.70;99.90
12264;DHT22;6194;49.010;8.414;2023-09-07T15:14:19;29.60;99.90
12264;DHT22;6194;49.010;8.414;2023-09-07T15:16:45;29.60;99.90
12264;DHT22;6194;49.010;8.414;2023-09-07T15:19:10;29.60;99.90
12264;DHT22;6194;49.010;8.414;2023-09-07T15:21:36;29.60;99.90
12264;DHT22;6194;49.010;8.414;2023-09-07T15:24:02;29.60;99.90
12264;DHT22;6194;49.010;8.414;2023-09-07T15:26:27;29.50;99.90
12264;DHT22;6194;49.010;8.414;2023-09-07T15:28:53;29.60;99.90
12264;DHT22;6194;49.010;8.414;2023-09-07T15:31:19;29.50;99.90
12264;DHT22;6194;49.010;8.414;2023-09-07T15:33:44;29.50;99.90
12264;DHT22;6194;49.010;8.414;2023-09-07T15:36:10;29.50;99.90
12264;DHT22;6194;49.010;8.414;2023-09-07T15:38:35;29.50;99.90
12264;DHT22;6194;49.010;8.414;2023-09-07T15:41:01;29.50;99.90
12264;DHT22;6194;49.010;8.414;2023-09-07T15:43:31;29.50;99.90
12264;DHT22;6194;49.010;8.414;2023-09-07T15:45:58;29.50;99.90